Main page
Satellite images 15-day forecastsClimateMarine weather Cyclones Lightning AirportsFAQ Newsletter About
Weather : Europe Africa North America South America Asia Australia-Oceania Others
Languages Contact

Birmingham, England

latitude: 52-27N, longitude: 001-44W, elevation: 99 m


METAR: EGBB 302220Z 17007KT 6000 BKN014 14/13 Q1016
TAF: EGBB 302152Z 3021/3118 18008KT 5000 HZ FEW008 SCT010 TEMPO 3021/3109 4000 BR BKN010 PROB30 TEMPO 3021/3109 BKN007 BECMG 3108/3111 9999 NSW

Time: 22:51 (22:51 UTC)

Current weather observation

The report was made 31 minutes ago, at 22:20 UTC
Wind 7 kt from the South
Temperature 14°C
Humidity 94%
Pressure 1016 hPa
Visibility: 6000 m
Broken clouds at a height of 1400 ft

Change units

Forecast

The report was made 59 minutes ago, at 21:52 UTC
Forecast valid from 30 at 21 UTC to 31 at 18 UTC
Wind 8 kt from the South
Visibility: 5000 m
Few clouds at a height of 800 ft
Scattered clouds at a height of 1000 ft
haze
Temporary
from 30 at 21 UTC to 31 at 09 UTC
Visibility: 4000 m
Broken clouds at a height of 1000 ft
mist
Probability 30% :
Temporary
from 30 at 21 UTC to 31 at 09 UTC
Broken clouds at a height of 700 ft
Becoming
from 31 at 08 UTC to 31 at 11 UTC
Visibility 10 km or more
The information on this site is subject to a disclaimer
Weather : Europe Africa North America South America Asia Australia-Oceania Others
Satellite images 15-day forecastsClimateMarine weather Cyclones Lightning AirportsFAQ Languages Contact Newsletter About